PWSweather.com
Personal Weather Stations
Station Observations
IPORTUGA89
BarosaPT

BarosaPT

Lat: 39.754028, Lon: -8.843

Elevation: 98

Station Type: Davis Vp2

High Low Average
Temperature 81.3°F27.4°C 56.1°F13.4°C 67.5°F19.7°C
Dew Point 63.7°F17.6°C 54.1°F12.3°C 60.4°F15.8°C
Winds 12.1 mph 19.5 kmh Calm Calm 3.0 mph SW4.8 kmh SW
Wind Gusts 21.0 mph33.8 kmh -- 6.0 mph9.7 kmh
Humidity 93% 52% 79%
Pressure 30.04 in1017.3 mb 29.98 in1015.2 mb -
Precipitation 0.00 in0.0 mm - -
Hour Temp Dew Point Humidity Winds Wind Gusts Pressure Precip Precip Rate Daily Precip Total
12:06 AM 64.9°F18.3°C 61.7°F16.5°C 89% 0.9 mph WSW1.4 kmh WSW 2.9 mph4.7 kmh 30.03 in1016.9 mb 0.00 in0.0 mm 0.00 in0.0 mm 0.00 in0.0 mm
12:16 AM 64.9°F18.3°C 61.7°F16.5°C 89% 2.9 mph WNW4.7 kmh WNW 6.0 mph9.7 kmh 30.03 in1016.9 mb 0.00 in0.0 mm 0.00 in0.0 mm 0.00 in0.0 mm
12:26 AM 64.9°F18.3°C 61.7°F16.5°C 89% 2.9 mph NW4.7 kmh NW 4.9 mph7.9 kmh 30.03 in1016.9 mb 0.00 in0.0 mm 0.00 in0.0 mm 0.00 in0.0 mm
12:36 AM 64.9°F18.3°C 61.7°F16.5°C 89% 0.9 mph NW1.4 kmh NW 2.9 mph4.7 kmh 30.03 in1016.9 mb 0.00 in0.0 mm 0.00 in0.0 mm 0.00 in0.0 mm
12:46 AM 64.8°F18.2°C 61.2°F16.2°C 88% 2.9 mph SW4.7 kmh SW 6.0 mph9.7 kmh 30.03 in1016.9 mb 0.00 in0.0 mm 0.00 in0.0 mm 0.00 in0.0 mm
12:56 AM 64.8°F18.2°C 61.2°F16.2°C 88% 2.9 mph WNW4.7 kmh WNW 6.9 mph11.1 kmh 30.03 in1016.9 mb 0.00 in0.0 mm 0.00 in0.0 mm 0.00 in0.0 mm
01:06 AM 64.8°F18.2°C 61.2°F16.2°C 88% 2.0 mph NW3.2 kmh NW 4.9 mph7.9 kmh 30.02 in1016.6 mb 0.00 in0.0 mm 0.00 in0.0 mm 0.00 in0.0 mm
01:16 AM 64.8°F18.2°C 61.2°F16.2°C 88% 2.0 mph W3.2 kmh W 6.0 mph9.7 kmh 30.02 in1016.6 mb 0.00 in0.0 mm 0.00 in0.0 mm 0.00 in0.0 mm
01:26 AM 64.8°F18.2°C 61.2°F16.2°C 88% 2.0 mph WSW3.2 kmh WSW 4.0 mph6.4 kmh 30.02 in1016.6 mb 0.00 in0.0 mm 0.00 in0.0 mm 0.00 in0.0 mm
01:36 AM 64.8°F18.2°C 60.8°F16.0°C 87% 2.0 mph WNW3.2 kmh WNW 4.0 mph6.4 kmh 30.02 in1016.6 mb 0.00 in0.0 mm 0.00 in0.0 mm 0.00 in0.0 mm
01:46 AM 64.6°F18.1°C 60.6°F15.9°C 87% 0.9 mph WNW1.4 kmh WNW 2.0 mph3.2 kmh 30.02 in1016.6 mb 0.00 in0.0 mm 0.00 in0.0 mm 0.00 in0.0 mm
01:56 AM 64.6°F18.1°C 60.6°F15.9°C 87% 2.0 mph WNW3.2 kmh WNW 2.9 mph4.7 kmh 30.01 in1016.3 mb 0.00 in0.0 mm 0.00 in0.0 mm 0.00 in0.0 mm
02:06 AM 64.6°F18.1°C 60.6°F15.9°C 87% 2.0 mph NW3.2 kmh NW 4.0 mph6.4 kmh 30.01 in1016.3 mb 0.00 in0.0 mm 0.00 in0.0 mm 0.00 in0.0 mm
02:16 AM 64.6°F18.1°C 60.6°F15.9°C 87% 2.0 mph NW3.2 kmh NW 4.0 mph6.4 kmh 30.01 in1016.3 mb 0.00 in0.0 mm 0.00 in0.0 mm 0.00 in0.0 mm
02:26 AM 64.6°F18.1°C 60.6°F15.9°C 87% 2.0 mph NW3.2 kmh NW 4.0 mph6.4 kmh 30.01 in1016.3 mb 0.00 in0.0 mm 0.00 in0.0 mm 0.00 in0.0 mm
02:37 AM 64.6°F18.1°C 60.6°F15.9°C 87% 2.0 mph NW3.2 kmh NW 2.9 mph4.7 kmh 30.01 in1016.3 mb 0.00 in0.0 mm 0.00 in0.0 mm 0.00 in0.0 mm
02:47 AM 64.6°F18.1°C 60.6°F15.9°C 87% 0.9 mph WNW1.4 kmh WNW 2.9 mph4.7 kmh 30.01 in1016.3 mb 0.00 in0.0 mm 0.00 in0.0 mm 0.00 in0.0 mm
02:57 AM 64.4°F18.0°C 60.4°F15.8°C 87% 2.0 mph WSW3.2 kmh WSW 4.0 mph6.4 kmh 30.01 in1016.3 mb 0.00 in0.0 mm 0.00 in0.0 mm 0.00 in0.0 mm
03:07 AM 64.4°F18.0°C 60.8°F16.0°C 88% 2.0 mph W3.2 kmh W 4.0 mph6.4 kmh 30.01 in1016.3 mb 0.00 in0.0 mm 0.00 in0.0 mm 0.00 in0.0 mm
03:17 AM 64.2°F17.9°C 60.6°F15.9°C 88% 2.0 mph W3.2 kmh W 4.0 mph6.4 kmh 30.01 in1016.3 mb 0.00 in0.0 mm 0.00 in0.0 mm 0.00 in0.0 mm
03:27 AM 64.2°F17.9°C 60.6°F15.9°C 88% 2.0 mph WNW3.2 kmh WNW 4.0 mph6.4 kmh 30.00 in1015.9 mb 0.00 in0.0 mm 0.00 in0.0 mm 0.00 in0.0 mm
03:37 AM 64.2°F17.9°C 60.6°F15.9°C 88% 0.9 mph WNW1.4 kmh WNW 4.0 mph6.4 kmh 30.00 in1015.9 mb 0.00 in0.0 mm 0.00 in0.0 mm 0.00 in0.0 mm
03:47 AM 64.2°F17.9°C 60.6°F15.9°C 88% 2.0 mph WNW3.2 kmh WNW 2.9 mph4.7 kmh 30.00 in1015.9 mb 0.00 in0.0 mm 0.00 in0.0 mm 0.00 in0.0 mm
03:57 AM 64.2°F17.9°C 60.6°F15.9°C 88% Calm Calm 2.0 mph3.2 kmh 30.00 in1015.9 mb 0.00 in0.0 mm 0.00 in0.0 mm 0.00 in0.0 mm
04:07 AM 64.0°F17.8°C 60.1°F15.6°C 87% Calm Calm -- 30.00 in1015.9 mb 0.00 in0.0 mm 0.00 in0.0 mm 0.00 in0.0 mm
04:17 AM 63.9°F17.7°C 59.9°F15.5°C 87% Calm Calm 2.0 mph3.2 kmh 30.00 in1015.9 mb 0.00 in0.0 mm 0.00 in0.0 mm 0.00 in0.0 mm
04:27 AM 63.9°F17.7°C 60.3°F15.7°C 88% 0.9 mph WNW1.4 kmh WNW 2.0 mph3.2 kmh 30.00 in1015.9 mb 0.00 in0.0 mm 0.00 in0.0 mm 0.00 in0.0 mm
04:37 AM 63.9°F17.7°C 60.3°F15.7°C 88% 0.9 mph WNW1.4 kmh WNW 2.0 mph3.2 kmh 30.01 in1016.3 mb 0.00 in0.0 mm 0.00 in0.0 mm 0.00 in0.0 mm
04:48 AM 63.9°F17.7°C 60.3°F15.7°C 88% Calm Calm 2.0 mph3.2 kmh 30.00 in1015.9 mb 0.00 in0.0 mm 0.00 in0.0 mm 0.00 in0.0 mm
04:58 AM 63.9°F17.7°C 60.6°F15.9°C 89% Calm Calm 0.9 mph1.4 kmh 30.00 in1015.9 mb 0.00 in0.0 mm 0.00 in0.0 mm 0.00 in0.0 mm
05:08 AM 63.7°F17.6°C 60.4°F15.8°C 89% Calm Calm 2.0 mph3.2 kmh 30.00 in1015.9 mb 0.00 in0.0 mm 0.00 in0.0 mm 0.00 in0.0 mm
05:18 AM 63.7°F17.6°C 60.4°F15.8°C 89% 0.9 mph WNW1.4 kmh WNW 2.0 mph3.2 kmh 30.00 in1015.9 mb 0.00 in0.0 mm 0.00 in0.0 mm 0.00 in0.0 mm
05:28 AM 63.5°F17.5°C 60.3°F15.7°C 89% Calm Calm 2.0 mph3.2 kmh 30.00 in1015.9 mb 0.00 in0.0 mm 0.00 in0.0 mm 0.00 in0.0 mm
05:38 AM 63.3°F17.4°C 60.1°F15.6°C 89% 0.9 mph WNW1.4 kmh WNW 2.0 mph3.2 kmh 30.00 in1015.9 mb 0.00 in0.0 mm 0.00 in0.0 mm 0.00 in0.0 mm
05:48 AM 63.1°F17.3°C 59.9°F15.5°C 89% Calm Calm -- 30.00 in1015.9 mb 0.00 in0.0 mm 0.00 in0.0 mm 0.00 in0.0 mm
05:58 AM 63.0°F17.2°C 59.7°F15.4°C 89% Calm Calm -- 30.00 in1015.9 mb 0.00 in0.0 mm 0.00 in0.0 mm 0.00 in0.0 mm
06:08 AM 62.8°F17.1°C 59.7°F15.4°C 90% Calm Calm -- 30.01 in1016.3 mb 0.00 in0.0 mm 0.00 in0.0 mm 0.00 in0.0 mm
06:18 AM 62.8°F17.1°C 59.7°F15.4°C 90% Calm Calm -- 30.00 in1015.9 mb 0.00 in0.0 mm 0.00 in0.0 mm 0.00 in0.0 mm
06:28 AM 62.4°F16.9°C 59.4°F15.2°C 90% Calm Calm -- 30.01 in1016.3 mb 0.00 in0.0 mm 0.00 in0.0 mm 0.00 in0.0 mm
06:39 AM 62.4°F16.9°C 59.7°F15.4°C 91% Calm Calm -- 30.01 in1016.3 mb 0.00 in0.0 mm 0.00 in0.0 mm 0.00 in0.0 mm
06:49 AM 62.8°F17.1°C 60.1°F15.6°C 91% Calm Calm -- 30.01 in1016.3 mb 0.00 in0.0 mm 0.00 in0.0 mm 0.00 in0.0 mm
06:59 AM 63.0°F17.2°C 60.6°F15.9°C 92% 0.9 mph NW1.4 kmh NW 2.9 mph4.7 kmh 30.02 in1016.6 mb 0.00 in0.0 mm 0.00 in0.0 mm 0.00 in0.0 mm
07:09 AM 63.3°F17.4°C 60.6°F15.9°C 91% 2.0 mph NW3.2 kmh NW 2.9 mph4.7 kmh 30.02 in1016.6 mb 0.00 in0.0 mm 0.00 in0.0 mm 0.00 in0.0 mm
07:19 AM 63.7°F17.6°C 61.0°F16.1°C 91% 0.9 mph NNE1.4 kmh NNE 2.9 mph4.7 kmh 30.02 in1016.6 mb 0.00 in0.0 mm 0.00 in0.0 mm 0.00 in0.0 mm
07:29 AM 63.9°F17.7°C 61.2°F16.2°C 91% 2.0 mph N3.2 kmh N 4.0 mph6.4 kmh 30.02 in1016.6 mb 0.00 in0.0 mm 0.00 in0.0 mm 0.00 in0.0 mm
07:39 AM 64.2°F17.9°C 61.2°F16.2°C 90% 0.9 mph NNE1.4 kmh NNE 4.0 mph6.4 kmh 30.03 in1016.9 mb 0.00 in0.0 mm 0.00 in0.0 mm 0.00 in0.0 mm
07:49 AM 64.6°F18.1°C 61.5°F16.4°C 90% 0.9 mph N1.4 kmh N 2.9 mph4.7 kmh 30.03 in1016.9 mb 0.00 in0.0 mm 0.00 in0.0 mm 0.00 in0.0 mm
07:59 AM 64.9°F18.3°C 61.7°F16.5°C 89% 2.0 mph 3.2 kmh 4.0 mph6.4 kmh 30.03 in1016.9 mb 0.00 in0.0 mm 0.00 in0.0 mm 0.00 in0.0 mm
08:09 AM 65.3°F18.5°C 61.3°F16.3°C 87% 2.0 mph NNE3.2 kmh NNE 4.0 mph6.4 kmh 30.03 in1016.9 mb 0.00 in0.0 mm 0.00 in0.0 mm 0.00 in0.0 mm
08:19 AM 65.7°F18.7°C 61.3°F16.3°C 86% 4.0 mph N6.4 kmh N 6.0 mph9.7 kmh 30.03 in1016.9 mb 0.00 in0.0 mm 0.00 in0.0 mm 0.00 in0.0 mm
08:29 AM 66.0°F18.9°C 61.0°F16.1°C 84% 4.0 mph N6.4 kmh N 6.9 mph11.1 kmh 30.03 in1016.9 mb 0.00 in0.0 mm 0.00 in0.0 mm 0.00 in0.0 mm
08:39 AM 66.2°F19.0°C 60.6°F15.9°C 82% 2.9 mph NNE4.7 kmh NNE 6.9 mph11.1 kmh 30.03 in1016.9 mb 0.00 in0.0 mm 0.00 in0.0 mm 0.00 in0.0 mm
08:49 AM 66.4°F19.1°C 60.8°F16.0°C 82% 2.9 mph N4.7 kmh N 6.9 mph11.1 kmh 30.04 in1017.3 mb 0.00 in0.0 mm 0.00 in0.0 mm 0.00 in0.0 mm
08:59 AM 66.6°F19.2°C 60.6°F15.9°C 81% 4.9 mph NNE7.9 kmh NNE 8.9 mph14.3 kmh 30.04 in1017.3 mb 0.00 in0.0 mm 0.00 in0.0 mm 0.00 in0.0 mm
09:09 AM 66.7°F19.3°C 60.4°F15.8°C 80% 2.9 mph ENE4.7 kmh ENE 8.1 mph13.0 kmh 30.04 in1017.3 mb 0.00 in0.0 mm 0.00 in0.0 mm 0.00 in0.0 mm
09:19 AM 67.5°F19.7°C 60.8°F16.0°C 79% 4.0 mph NE6.4 kmh NE 6.0 mph9.7 kmh 30.04 in1017.3 mb 0.00 in0.0 mm 0.00 in0.0 mm 0.00 in0.0 mm
09:29 AM 68.4°F20.2°C 60.8°F16.0°C 77% 4.9 mph NE7.9 kmh NE 10.1 mph16.3 kmh 30.04 in1017.3 mb 0.00 in0.0 mm 0.00 in0.0 mm 0.00 in0.0 mm
09:39 AM 68.7°F20.4°C 61.2°F16.2°C 77% 4.0 mph N6.4 kmh N 8.9 mph14.3 kmh 30.04 in1017.3 mb 0.00 in0.0 mm 0.00 in0.0 mm 0.00 in0.0 mm
09:49 AM 70.0°F21.1°C 61.3°F16.3°C 74% 4.0 mph E6.4 kmh E 10.1 mph16.3 kmh 30.04 in1017.3 mb 0.00 in0.0 mm 0.00 in0.0 mm 0.00 in0.0 mm
09:59 AM 70.3°F21.3°C 61.3°F16.3°C 73% 2.9 mph SSE4.7 kmh SSE 8.1 mph13.0 kmh 30.04 in1017.3 mb 0.00 in0.0 mm 0.00 in0.0 mm 0.00 in0.0 mm
10:09 AM 71.6°F22.0°C 61.3°F16.3°C 70% 2.9 mph ENE4.7 kmh ENE 8.9 mph14.3 kmh 30.04 in1017.3 mb 0.00 in0.0 mm 0.00 in0.0 mm 0.00 in0.0 mm
10:20 AM 71.8°F22.1°C 61.5°F16.4°C 70% 4.0 mph N6.4 kmh N 8.9 mph14.3 kmh 30.04 in1017.3 mb 0.00 in0.0 mm 0.00 in0.0 mm 0.00 in0.0 mm
10:30 AM 71.8°F22.1°C 61.5°F16.4°C 70% 4.0 mph NNE6.4 kmh NNE 8.1 mph13.0 kmh 30.04 in1017.3 mb 0.00 in0.0 mm 0.00 in0.0 mm 0.00 in0.0 mm
10:40 AM 72.3°F22.4°C 62.1°F16.7°C 70% 2.9 mph N4.7 kmh N 6.9 mph11.1 kmh 30.04 in1017.3 mb 0.00 in0.0 mm 0.00 in0.0 mm 0.00 in0.0 mm
10:50 AM 72.7°F22.6°C 61.9°F16.6°C 69% 2.0 mph NE3.2 kmh NE 6.9 mph11.1 kmh 30.03 in1016.9 mb 0.00 in0.0 mm 0.00 in0.0 mm 0.00 in0.0 mm
11:00 AM 73.6°F23.1°C 61.2°F16.2°C 65% 4.0 mph N6.4 kmh N 11.0 mph17.7 kmh 30.03 in1016.9 mb 0.00 in0.0 mm 0.00 in0.0 mm 0.00 in0.0 mm
11:10 AM 73.9°F23.3°C 61.3°F16.3°C 65% 4.9 mph NE7.9 kmh NE 8.9 mph14.3 kmh 30.03 in1016.9 mb 0.00 in0.0 mm 0.00 in0.0 mm 0.00 in0.0 mm
11:20 AM 74.8°F23.8°C 62.2°F16.8°C 65% 4.0 mph NNW6.4 kmh NNW 8.1 mph13.0 kmh 30.03 in1016.9 mb 0.00 in0.0 mm 0.00 in0.0 mm 0.00 in0.0 mm
11:30 AM 74.8°F23.8°C 62.2°F16.8°C 65% 4.0 mph NNE6.4 kmh NNE 8.9 mph14.3 kmh 30.02 in1016.6 mb 0.00 in0.0 mm 0.00 in0.0 mm 0.00 in0.0 mm
11:40 AM 75.6°F24.2°C 63.0°F17.2°C 65% 2.9 mph ESE4.7 kmh ESE 8.1 mph13.0 kmh 30.02 in1016.6 mb 0.00 in0.0 mm 0.00 in0.0 mm 0.00 in0.0 mm
11:50 AM 76.3°F24.6°C 61.9°F16.6°C 61% 2.9 mph E4.7 kmh E 8.1 mph13.0 kmh 30.02 in1016.6 mb 0.00 in0.0 mm 0.00 in0.0 mm 0.00 in0.0 mm
12:00 PM 76.8°F24.9°C 62.4°F16.9°C 61% 2.0 mph NW3.2 kmh NW 4.9 mph7.9 kmh 30.01 in1016.3 mb 0.00 in0.0 mm 0.00 in0.0 mm 0.00 in0.0 mm
12:10 PM 77.7°F25.4°C 62.2°F16.8°C 59% 2.0 mph WSW3.2 kmh WSW 6.9 mph11.1 kmh 30.01 in1016.3 mb 0.00 in0.0 mm 0.00 in0.0 mm 0.00 in0.0 mm
12:20 PM 78.3°F25.7°C 61.7°F16.5°C 57% 2.9 mph SSE4.7 kmh SSE 10.1 mph16.3 kmh 30.01 in1016.3 mb 0.00 in0.0 mm 0.00 in0.0 mm 0.00 in0.0 mm
12:30 PM 78.6°F25.9°C 62.6°F17.0°C 58% 2.9 mph NE4.7 kmh NE 8.1 mph13.0 kmh 30.01 in1016.3 mb 0.00 in0.0 mm 0.00 in0.0 mm 0.00 in0.0 mm
12:40 PM 79.2°F26.2°C 62.6°F17.0°C 57% 2.0 mph NE3.2 kmh NE 4.9 mph7.9 kmh 30.01 in1016.3 mb 0.00 in0.0 mm 0.00 in0.0 mm 0.00 in0.0 mm
12:50 PM 79.0°F26.1°C 61.9°F16.6°C 56% 4.9 mph N7.9 kmh N 10.1 mph16.3 kmh 30.00 in1015.9 mb 0.00 in0.0 mm 0.00 in0.0 mm 0.00 in0.0 mm
01:00 PM 79.5°F26.4°C 61.3°F16.3°C 54% 2.9 mph SSW4.7 kmh SSW 8.1 mph13.0 kmh 30.00 in1015.9 mb 0.00 in0.0 mm 0.00 in0.0 mm 0.00 in0.0 mm
01:10 PM 80.1°F26.7°C 61.9°F16.6°C 54% 4.0 mph WSW6.4 kmh WSW 8.9 mph14.3 kmh 30.00 in1015.9 mb 0.00 in0.0 mm 0.00 in0.0 mm 0.00 in0.0 mm
01:20 PM 81.1°F27.3°C 61.9°F16.6°C 52% 2.9 mph NE4.7 kmh NE 8.1 mph13.0 kmh 29.99 in1015.6 mb 0.00 in0.0 mm 0.00 in0.0 mm 0.00 in0.0 mm
01:30 PM 81.3°F27.4°C 63.7°F17.6°C 55% 6.9 mph NW11.1 kmh NW 14.1 mph22.7 kmh 29.99 in1015.6 mb 0.00 in0.0 mm 0.00 in0.0 mm 0.00 in0.0 mm
01:40 PM 80.8°F27.1°C 63.7°F17.6°C 56% 8.1 mph NW13.0 kmh NW 17.9 mph28.8 kmh 29.99 in1015.6 mb 0.00 in0.0 mm 0.00 in0.0 mm 0.00 in0.0 mm
01:50 PM 79.3°F26.3°C 62.8°F17.1°C 57% 11.0 mph N17.7 kmh N 19.0 mph30.6 kmh 29.98 in1015.2 mb 0.00 in0.0 mm 0.00 in0.0 mm 0.00 in0.0 mm
02:00 PM 78.8°F26.0°C 63.7°F17.6°C 60% 10.1 mph NW16.3 kmh NW 21.0 mph33.8 kmh 29.98 in1015.2 mb 0.00 in0.0 mm 0.00 in0.0 mm 0.00 in0.0 mm
02:10 PM 78.1°F25.6°C 63.5°F17.5°C 61% 12.1 mph WNW19.5 kmh WNW 19.0 mph30.6 kmh 29.99 in1015.6 mb 0.00 in0.0 mm 0.00 in0.0 mm 0.00 in0.0 mm
02:20 PM 77.2°F25.1°C 63.1°F17.3°C 62% 10.1 mph WSW16.3 kmh WSW 17.0 mph27.4 kmh 29.99 in1015.6 mb 0.00 in0.0 mm 0.00 in0.0 mm 0.00 in0.0 mm
02:30 PM 76.8°F24.9°C 62.8°F17.1°C 62% 8.9 mph NNW14.3 kmh NNW 15.0 mph24.1 kmh 29.98 in1015.2 mb 0.00 in0.0 mm 0.00 in0.0 mm 0.00 in0.0 mm
02:40 PM 75.7°F24.3°C 62.8°F17.1°C 64% 8.9 mph NNW14.3 kmh NNW 15.0 mph24.1 kmh 29.99 in1015.6 mb 0.00 in0.0 mm 0.00 in0.0 mm 0.00 in0.0 mm
02:50 PM 75.2°F24.0°C 62.6°F17.0°C 65% 8.9 mph NW14.3 kmh NW 16.1 mph25.9 kmh 29.99 in1015.6 mb 0.00 in0.0 mm 0.00 in0.0 mm 0.00 in0.0 mm
03:00 PM 75.0°F23.9°C 63.0°F17.2°C 66% 8.9 mph NW14.3 kmh NW 17.0 mph27.4 kmh 29.98 in1015.2 mb 0.00 in0.0 mm 0.00 in0.0 mm 0.00 in0.0 mm
03:10 PM 75.9°F24.4°C 63.7°F17.6°C 66% 6.9 mph NW11.1 kmh NW 13.0 mph20.9 kmh 29.98 in1015.2 mb 0.00 in0.0 mm 0.00 in0.0 mm 0.00 in0.0 mm
03:20 PM 75.7°F24.3°C 63.1°F17.3°C 65% 6.9 mph NW11.1 kmh NW 13.0 mph20.9 kmh 29.98 in1015.2 mb 0.00 in0.0 mm 0.00 in0.0 mm 0.00 in0.0 mm
03:30 PM 75.6°F24.2°C 63.0°F17.2°C 65% 6.9 mph NW11.1 kmh NW 12.1 mph19.5 kmh 29.98 in1015.2 mb 0.00 in0.0 mm 0.00 in0.0 mm 0.00 in0.0 mm
03:40 PM 76.1°F24.5°C 63.0°F17.2°C 64% 6.9 mph NW11.1 kmh NW 12.1 mph19.5 kmh 29.98 in1015.2 mb 0.00 in0.0 mm 0.00 in0.0 mm 0.00 in0.0 mm
03:50 PM 74.8°F23.8°C 62.2°F16.8°C 65% 8.1 mph NNW13.0 kmh NNW 13.0 mph20.9 kmh 29.98 in1015.2 mb 0.00 in0.0 mm 0.00 in0.0 mm 0.00 in0.0 mm
04:00 PM 73.9°F23.3°C 62.8°F17.1°C 68% 8.1 mph W13.0 kmh W 14.1 mph22.7 kmh 29.98 in1015.2 mb 0.00 in0.0 mm 0.00 in0.0 mm 0.00 in0.0 mm
04:10 PM 74.7°F23.7°C 63.0°F17.2°C 67% 6.0 mph NW9.7 kmh NW 12.1 mph19.5 kmh 29.98 in1015.2 mb 0.00 in0.0 mm 0.00 in0.0 mm 0.00 in0.0 mm
04:20 PM 74.3°F23.5°C 62.2°F16.8°C 66% 6.0 mph WNW9.7 kmh WNW 10.1 mph16.3 kmh 29.98 in1015.2 mb 0.00 in0.0 mm 0.00 in0.0 mm 0.00 in0.0 mm
04:31 PM 73.9°F23.3°C 62.8°F17.1°C 68% 6.0 mph WSW9.7 kmh WSW 12.1 mph19.5 kmh 29.98 in1015.2 mb 0.00 in0.0 mm 0.00 in0.0 mm 0.00 in0.0 mm
04:41 PM 74.1°F23.4°C 62.4°F16.9°C 67% 4.9 mph NW7.9 kmh NW 10.1 mph16.3 kmh 29.98 in1015.2 mb 0.00 in0.0 mm 0.00 in0.0 mm 0.00 in0.0 mm
04:51 PM 73.6°F23.1°C 61.9°F16.6°C 67% 6.9 mph NW11.1 kmh NW 12.1 mph19.5 kmh 29.98 in1015.2 mb 0.00 in0.0 mm 0.00 in0.0 mm 0.00 in0.0 mm
05:01 PM 72.9°F22.7°C 62.1°F16.7°C 69% 6.0 mph NNW9.7 kmh NNW 10.1 mph16.3 kmh 29.98 in1015.2 mb 0.00 in0.0 mm 0.00 in0.0 mm 0.00 in0.0 mm
05:11 PM 72.5°F22.5°C 62.2°F16.8°C 70% 4.9 mph WSW7.9 kmh WSW 10.1 mph16.3 kmh 29.99 in1015.6 mb 0.00 in0.0 mm 0.00 in0.0 mm 0.00 in0.0 mm
05:21 PM 72.1°F22.3°C 61.9°F16.6°C 70% 4.0 mph SW6.4 kmh SW 8.9 mph14.3 kmh 29.99 in1015.6 mb 0.00 in0.0 mm 0.00 in0.0 mm 0.00 in0.0 mm
05:31 PM 71.4°F21.9°C 61.9°F16.6°C 72% 4.9 mph NW7.9 kmh NW 8.9 mph14.3 kmh 29.99 in1015.6 mb 0.00 in0.0 mm 0.00 in0.0 mm 0.00 in0.0 mm
05:41 PM 71.2°F21.8°C 61.7°F16.5°C 72% 4.9 mph NW7.9 kmh NW 8.9 mph14.3 kmh 29.99 in1015.6 mb 0.00 in0.0 mm 0.00 in0.0 mm 0.00 in0.0 mm
05:51 PM 71.2°F21.8°C 61.7°F16.5°C 72% 4.0 mph W6.4 kmh W 8.1 mph13.0 kmh 29.99 in1015.6 mb 0.00 in0.0 mm 0.00 in0.0 mm 0.00 in0.0 mm
06:01 PM 70.3°F21.3°C 61.3°F16.3°C 73% 4.0 mph WNW6.4 kmh WNW 8.1 mph13.0 kmh 29.99 in1015.6 mb 0.00 in0.0 mm 0.00 in0.0 mm 0.00 in0.0 mm
06:11 PM 70.0°F21.1°C 61.0°F16.1°C 73% 4.0 mph N6.4 kmh N 8.1 mph13.0 kmh 29.99 in1015.6 mb 0.00 in0.0 mm 0.00 in0.0 mm 0.00 in0.0 mm
06:31 PM 68.5°F20.3°C 60.6°F15.9°C 76% 2.9 mph NW4.7 kmh NW 4.9 mph7.9 kmh 29.99 in1015.6 mb 0.00 in0.0 mm 0.00 in0.0 mm 0.00 in0.0 mm
06:41 PM 67.8°F19.9°C 60.3°F15.7°C 77% 4.0 mph NW6.4 kmh NW 6.9 mph11.1 kmh 29.99 in1015.6 mb 0.00 in0.0 mm 0.00 in0.0 mm 0.00 in0.0 mm
06:51 PM 67.3°F19.6°C 60.3°F15.7°C 78% 2.0 mph WNW3.2 kmh WNW 4.0 mph6.4 kmh 29.99 in1015.6 mb 0.00 in0.0 mm 0.00 in0.0 mm 0.00 in0.0 mm
07:01 PM 66.4°F19.1°C 60.1°F15.6°C 80% 0.9 mph WNW1.4 kmh WNW 2.9 mph4.7 kmh 29.99 in1015.6 mb 0.00 in0.0 mm 0.00 in0.0 mm 0.00 in0.0 mm
07:11 PM 65.5°F18.6°C 59.5°F15.3°C 81% Calm Calm -- 29.99 in1015.6 mb 0.00 in0.0 mm 0.00 in0.0 mm 0.00 in0.0 mm
07:21 PM 64.2°F17.9°C 58.6°F14.8°C 82% 0.9 mph WNW1.4 kmh WNW 2.0 mph3.2 kmh 29.99 in1015.6 mb 0.00 in0.0 mm 0.00 in0.0 mm 0.00 in0.0 mm
07:31 PM 63.7°F17.6°C 58.8°F14.9°C 84% Calm Calm 2.0 mph3.2 kmh 30.00 in1015.9 mb 0.00 in0.0 mm 0.00 in0.0 mm 0.00 in0.0 mm
07:42 PM 63.0°F17.2°C 58.5°F14.7°C 85% Calm Calm -- 30.00 in1015.9 mb 0.00 in0.0 mm 0.00 in0.0 mm 0.00 in0.0 mm
07:52 PM 62.4°F16.9°C 58.1°F14.5°C 86% 0.9 mph SW1.4 kmh SW 4.9 mph7.9 kmh 30.00 in1015.9 mb 0.00 in0.0 mm 0.00 in0.0 mm 0.00 in0.0 mm
08:02 PM 62.4°F16.9°C 58.5°F14.7°C 87% 2.0 mph SW3.2 kmh SW 4.0 mph6.4 kmh 30.01 in1016.3 mb 0.00 in0.0 mm 0.00 in0.0 mm 0.00 in0.0 mm
08:12 PM 61.9°F16.6°C 57.9°F14.4°C 87% 0.9 mph SW1.4 kmh SW 2.0 mph3.2 kmh 30.01 in1016.3 mb 0.00 in0.0 mm 0.00 in0.0 mm 0.00 in0.0 mm
08:22 PM 61.3°F16.3°C 57.7°F14.3°C 88% 0.9 mph SW1.4 kmh SW 4.0 mph6.4 kmh 30.01 in1016.3 mb 0.00 in0.0 mm 0.00 in0.0 mm 0.00 in0.0 mm
08:32 PM 61.3°F16.3°C 58.1°F14.5°C 89% 2.0 mph SW3.2 kmh SW 4.0 mph6.4 kmh 30.01 in1016.3 mb 0.00 in0.0 mm 0.00 in0.0 mm 0.00 in0.0 mm
08:42 PM 61.2°F16.2°C 57.9°F14.4°C 89% 2.0 mph SW3.2 kmh SW 4.0 mph6.4 kmh 30.01 in1016.3 mb 0.00 in0.0 mm 0.00 in0.0 mm 0.00 in0.0 mm
08:52 PM 60.4°F15.8°C 57.2°F14.0°C 89% 0.9 mph SW1.4 kmh SW 2.0 mph3.2 kmh 30.01 in1016.3 mb 0.00 in0.0 mm 0.00 in0.0 mm 0.00 in0.0 mm
09:02 PM 60.3°F15.7°C 57.4°F14.1°C 90% Calm Calm 2.0 mph3.2 kmh 30.01 in1016.3 mb 0.00 in0.0 mm 0.00 in0.0 mm 0.00 in0.0 mm
09:12 PM 59.7°F15.4°C 56.8°F13.8°C 90% 0.9 mph SW1.4 kmh SW 2.0 mph3.2 kmh 30.01 in1016.3 mb 0.00 in0.0 mm 0.00 in0.0 mm 0.00 in0.0 mm
09:22 PM 59.5°F15.3°C 56.7°F13.7°C 90% Calm Calm 2.0 mph3.2 kmh 30.01 in1016.3 mb 0.00 in0.0 mm 0.00 in0.0 mm 0.00 in0.0 mm
09:33 PM 58.8°F14.9°C 55.9°F13.3°C 90% Calm Calm 0.9 mph1.4 kmh 30.01 in1016.3 mb 0.00 in0.0 mm 0.00 in0.0 mm 0.00 in0.0 mm
09:43 PM 59.0°F15.0°C 56.3°F13.5°C 91% Calm Calm 2.0 mph3.2 kmh 30.00 in1015.9 mb 0.00 in0.0 mm 0.00 in0.0 mm 0.00 in0.0 mm
09:53 PM 58.8°F14.9°C 56.1°F13.4°C 91% 0.9 mph SW1.4 kmh SW 2.0 mph3.2 kmh 30.00 in1015.9 mb 0.00 in0.0 mm 0.00 in0.0 mm 0.00 in0.0 mm
10:03 PM 58.6°F14.8°C 56.3°F13.5°C 92% Calm Calm 2.0 mph3.2 kmh 30.00 in1015.9 mb 0.00 in0.0 mm 0.00 in0.0 mm 0.00 in0.0 mm
10:13 PM 58.5°F14.7°C 56.1°F13.4°C 92% 0.9 mph SW1.4 kmh SW 2.0 mph3.2 kmh 29.99 in1015.6 mb 0.00 in0.0 mm 0.00 in0.0 mm 0.00 in0.0 mm
10:23 PM 58.1°F14.5°C 55.8°F13.2°C 92% Calm Calm 0.9 mph1.4 kmh 29.99 in1015.6 mb 0.00 in0.0 mm 0.00 in0.0 mm 0.00 in0.0 mm
10:33 PM 57.9°F14.4°C 55.6°F13.1°C 92% Calm Calm 2.0 mph3.2 kmh 29.99 in1015.6 mb 0.00 in0.0 mm 0.00 in0.0 mm 0.00 in0.0 mm
10:44 PM 57.9°F14.4°C 55.6°F13.1°C 92% Calm Calm -- 29.99 in1015.6 mb 0.00 in0.0 mm 0.00 in0.0 mm 0.00 in0.0 mm
10:54 PM 57.7°F14.3°C 55.4°F13.0°C 92% Calm Calm -- 29.99 in1015.6 mb 0.00 in0.0 mm 0.00 in0.0 mm 0.00 in0.0 mm
11:04 PM 57.4°F14.1°C 55.0°F12.8°C 92% Calm Calm 0.9 mph1.4 kmh 29.98 in1015.2 mb 0.00 in0.0 mm 0.00 in0.0 mm 0.00 in0.0 mm
11:14 PM 57.2°F14.0°C 54.9°F12.7°C 92% Calm Calm -- 29.98 in1015.2 mb 0.00 in0.0 mm 0.00 in0.0 mm 0.00 in0.0 mm
11:24 PM 57.0°F13.9°C 55.0°F12.8°C 93% Calm Calm 0.9 mph1.4 kmh 29.98 in1015.2 mb 0.00 in0.0 mm 0.00 in0.0 mm 0.00 in0.0 mm
11:34 PM 56.8°F13.8°C 54.9°F12.7°C 93% Calm Calm 0.9 mph1.4 kmh 29.98 in1015.2 mb 0.00 in0.0 mm 0.00 in0.0 mm 0.00 in0.0 mm
11:44 PM 56.7°F13.7°C 54.7°F12.6°C 93% Calm Calm -- 29.98 in1015.2 mb 0.00 in0.0 mm 0.00 in0.0 mm 0.00 in0.0 mm
11:55 PM 56.1°F13.4°C 54.1°F12.3°C 93% Calm Calm -- 29.98 in1015.2 mb 0.00 in0.0 mm 0.00 in0.0 mm 0.00 in0.0 mm